Startpagina
METAR-TAF:

METAR-TAF

Vliegvelden :

Tel Aviv / Ben Gurion, Israël

Luchthaven Ben-Gurion

breedte: 32-00N, lengte: 034-54E, hoogte: 40 m

Actueel weer

Dit bericht is 44 minuten geleden gemaakt, om 02:20 UTC
Wind 1 kt uit variabele richting
Temperatuur 25°C
Vochtigheid 74%
Druk 1009 hPa
Zicht 10 km of meer
Weinig wolken op 2700 ft

METAR: LLBG 240220Z VRB01KT 9999 FEW027 25/20 Q1009 NOSIG

Tijdstip: 06:04 (03:04 UTC)

Verwachting

Dit bericht is 3 uur en het 58 minuten geleden gemaakt, om 23:06 UTC
Verwachting geldig van 24 om 00 UTC tot 24 om 24 UTC
Wind 3 kt uit variabele richting
Zicht 10 km of meer
Verspreide wolken op 2500 ft
Wijzigt naar
van 24 om 07 UTC tot 24 om 09 UTC
Wind 10 kt uit het westnoordwesten
Weinig wolken op 3500 ft
Wijzigt naar
van 24 om 15 UTC tot 24 om 17 UTC
Wind 3 kt uit variabele richting
Verspreide wolken op 2500 ft

TAF: LLBG 232306Z 2400/2424 VRB03KT 9999 SCT025 BECMG 2407/2409 30010KT FEW035 BECMG 2415/2417 VRB03KT SCT025 TX33/2410Z TN25/2403Z

Waarnemingen en weersverwachtingen van meer dan 4000 vliegvelden (METAR en TAF).

De beschikbare stations zijn de gele en rode punten op de kaart.

Ga met uw muis naar het station om de naam te zien.

Klik dan om waarnemingen en weersverwachtingen te zien.

kaart wijzigen: klik op de groene knoppen met een zwart kruis om in te zoomen, op de groene knop met een streepje om uit te zoomen of op de groene pijlen voor aangrenzende kaarten.


METAR-TAF: